Pacific - South Coast: Past 24 Hour Conditions

 

Port Hardy Airport

10:00 AM PDT 24 April 2014
This table is a summary of hourly weather conditions for the past 24 hours.
Date / Time
(PDT)
Wind(knots) Conditions Visibility(km) Pressure(kPa) Air tempC) Relative humidity(%) Dew pointC)
24 April 2014
10:00 ESE 13 Mostly Cloudy 32 99.7 8 89 6
9:00 ESE 16 gust 21 Mostly Cloudy 32 99.7 8 82 6
8:00 SE 15 gust 21 Mostly Cloudy 32 99.7 7 83 5
7:00 ESE 15 gust 22 Partly Cloudy 32 99.6 6 88 5
6:00 E 13 gust 21 Mostly Cloudy 32 99.6 6 87 4
5:00 E 18 Cloudy 24 99.6 6 85 4
4:00 E 18 Mostly Cloudy 24 99.7 7 88 5
3:00 E 17 gust 26 Partly Cloudy 24 99.7 7 88 6
2:00 E 21 gust 27 Partly Cloudy 24 99.8 8 84 5
1:00 E 19 Light Rainshower 24 99.8 8 84 6
0:00 E 16 gust 23 Mostly Cloudy 24 99.9 8 82 5
23 April 2014
23:00 ESE 13 gust 19 Light Rainshower 24 100.0 8 83 6
22:00 ESE 15 Partly Cloudy 24 100.1 9 76 5
21:00 ESE 12 gust 18 Mostly Cloudy 24 100.1 9 75 5
20:00 ESE 12 Partly Cloudy 32 100.2 9 77 6
19:00 ESE 11 Partly Cloudy 32 100.3 10 74 5
18:00 ESE 10 Partly Cloudy 32 100.4 10 78 7
17:00 ESE 12 Mostly Cloudy 32 100.5 10 81 7
16:00 SSE 5 Light Rainshower 32 100.6 9 85 7
15:00 SSE 5 gust 18 Partly Cloudy 24 100.6 9 88 7
14:00 ESE 7 gust 19 Light Rainshower 32 100.7 9 84 7
13:00 ESE 14 Partly Cloudy 32 100.7 11 68 6
12:00 E 13 Partly Cloudy 32 100.8 11 72 6
11:00 ESE 11 Mainly Sunny 32 100.8 11 70 6
10:00 ESE 11 Mainly Sunny 32 100.8 9 77 5
 
Map of Pacific - South Coast marine weather areas Tsawwassen Ferry Terminal South Nomad - 46036 Sentry Shoal - 46131 South Brooks - 46132 Halibut Bank - 46146 South Moresby - 46147 South Hecate Strait - 46185 West Sea Otter - 46204 La Perouse Bank - 46206 East Dellwood - 46207 Discovery Island Esquimalt Harbour Kelp Reefs Malahat Race Rocks Lightstation Saturna Island Sheringham Point University of Victoria Victoria Gonzales Victoria Int'l Airport Ballenas Islands Campbell River Airport Comox Airport Entrance Island Fanny Island Nanaimo Airport Port Hardy Airport Sisters Islets Estevan Point Sartine Island Solander Island Tofino Airport Grief Point Powell River Airport Sechelt Cape St.James Bella Bella Airport Bella Coola Airport Cathedral Point Herbert Island Point Atkinson Sand Heads Lightstation Vancouver Harbour Vancouver Int'l Airport West Vancouver Port Alberni Howe Sound - Pam Rocks Squamish Airport